Terminal Aerodrome Forecast
Issued by NWS

Home | Current Version | Previous Version | Text Only | Print | Product List | Glossary On
Versions: 1 2 3 4 5 6 7 8 9 10 11 12 13 14 15 16 17 18 19
000
FTUS44 KMAF 231100
TAFFST
TAF
KFST 231120Z 2312/2412 16016G25KT P6SM SCT130 BKN250
     FM231600 20011KT P6SM SCT250
     FM232100 24013G20KT P6SM SCT100 SCT250
     FM240100 20010KT P6SM SKC=

USA.gov is the U.S. government's official web portal to all federal, state and local government web resources and services.